createdAt,value
2019-03-24T00:01:12.399Z,50.47
2019-03-24T00:03:44.705Z,49.93
2019-03-24T00:06:16.748Z,50.07
2019-03-24T00:08:48.471Z,51.17
2019-03-24T00:11:20.422Z,49.53
2019-03-24T00:13:52.359Z,49.80
2019-03-24T00:16:24.249Z,57.97
2019-03-24T00:18:56.272Z,49.27
2019-03-24T00:21:27.997Z,56.87
2019-03-24T00:24:00.164Z,51.27
2019-03-24T00:26:32.575Z,58.43
2019-03-24T00:29:04.503Z,49.13
2019-03-24T00:31:36.511Z,55.40
2019-03-24T00:34:08.806Z,48.20
2019-03-24T00:36:40.637Z,60.03
2019-03-24T00:39:12.586Z,46.37
2019-03-24T00:41:46.009Z,51.93
2019-03-24T00:44:19.325Z,57.20
2019-03-24T00:46:51.155Z,49.00
2019-03-24T00:49:23.093Z,51.77
2019-03-24T00:51:55.200Z,52.10
2019-03-24T00:54:27.037Z,48.27
2019-03-24T00:56:59.002Z,50.20
2019-03-24T00:59:31.213Z,57.80
2019-03-24T01:02:03.177Z,45.03
2019-03-24T01:04:35.097Z,47.53
2019-03-24T01:07:08.126Z,48.60
2019-03-24T01:09:39.999Z,44.10
2019-03-24T01:12:13.666Z,44.93
2019-03-24T01:14:45.591Z,52.13
2019-03-24T01:17:17.882Z,40.43
2019-03-24T01:19:49.682Z,42.87
2019-03-24T01:22:22.558Z,43.43
2019-03-24T01:24:54.510Z,44.97
2019-03-24T01:27:26.353Z,45.87
2019-03-24T01:29:58.310Z,39.67
2019-03-24T01:32:30.440Z,43.30
2019-03-24T01:35:02.440Z,42.60
2019-03-24T01:37:34.651Z,39.60
2019-03-24T01:40:06.915Z,43.47
2019-03-24T01:42:40.710Z,45.53
2019-03-24T01:45:13.014Z,46.00
2019-03-24T01:47:46.069Z,42.13
2019-03-24T01:50:17.986Z,40.10
2019-03-24T01:52:50.003Z,46.67
2019-03-24T01:55:21.929Z,41.00
2019-03-24T01:57:53.798Z,42.27
2019-03-24T02:00:25.709Z,41.80
2019-03-24T02:02:58.169Z,39.40
2019-03-24T02:05:30.711Z,37.70
2019-03-24T02:08:02.785Z,34.63
2019-03-24T02:10:34.945Z,41.80
2019-03-24T02:13:06.789Z,40.07
2019-03-24T02:15:39.237Z,30.77
2019-03-24T02:18:11.215Z,33.10
2019-03-24T02:20:43.216Z,33.13
2019-03-24T02:23:16.206Z,36.93
2019-03-24T02:25:48.063Z,38.20
2019-03-24T02:28:20.163Z,28.30
2019-03-24T02:30:52.169Z,35.17
2019-03-24T02:33:23.957Z,38.50
2019-03-24T02:35:55.791Z,36.30
2019-03-24T02:38:27.931Z,39.13
2019-03-24T02:41:00.167Z,29.70
2019-03-24T02:43:32.498Z,30.97
2019-03-24T02:46:04.448Z,35.77
2019-03-24T02:48:36.344Z,33.37
2019-03-24T02:51:08.437Z,30.77
2019-03-24T02:53:40.623Z,34.07
2019-03-24T02:56:12.931Z,32.90
2019-03-24T02:58:46.096Z,32.10
2019-03-24T03:01:18.250Z,24.57
2019-03-24T03:03:50.289Z,32.60
2019-03-24T03:06:22.107Z,32.83
2019-03-24T03:08:53.970Z,30.93
2019-03-24T03:11:25.982Z,38.10
2019-03-24T03:13:57.824Z,32.23
2019-03-24T03:16:38.247Z,34.90
2019-03-24T03:19:04.328Z,41.33
2019-03-24T03:21:36.480Z,27.13
2019-03-24T03:24:08.810Z,31.93
2019-03-24T03:26:40.833Z,38.07
2019-03-24T03:29:12.733Z,26.03
2019-03-24T03:31:44.507Z,31.77
2019-03-24T03:34:16.509Z,33.27
2019-03-24T03:36:48.343Z,29.33
2019-03-24T03:39:20.361Z,32.10
2019-03-24T03:41:52.281Z,24.27
2019-03-24T03:44:24.126Z,31.67
2019-03-24T03:46:55.943Z,33.43
2019-03-24T03:49:28.111Z,34.93
2019-03-24T03:52:00.257Z,27.20
2019-03-24T03:54:32.486Z,26.60
2019-03-24T03:57:04.575Z,39.20
2019-03-24T03:59:36.354Z,32.67
2019-03-24T04:02:08.238Z,32.53
2019-03-24T04:04:40.844Z,27.13
2019-03-24T04:07:12.748Z,34.43
2019-03-24T04:09:44.601Z,28.67
2019-03-24T04:12:16.481Z,32.23
2019-03-24T04:14:49.124Z,27.63
2019-03-24T04:17:21.018Z,29.27
2019-03-24T04:19:56.232Z,36.93
2019-03-24T04:22:28.349Z,34.47
2019-03-24T04:25:00.556Z,37.40
2019-03-24T04:27:32.831Z,32.67
2019-03-24T04:30:04.935Z,26.90
2019-03-24T04:32:37.143Z,29.30
2019-03-24T04:35:09.929Z,28.27
2019-03-24T04:37:42.008Z,21.17
2019-03-24T04:40:13.987Z,27.33
2019-03-24T04:42:46.001Z,34.13
2019-03-24T04:45:17.890Z,24.07
2019-03-24T04:47:49.905Z,23.10
2019-03-24T04:50:21.964Z,32.17
2019-03-24T04:52:54.078Z,26.67
2019-03-24T04:55:25.882Z,25.73
2019-03-24T04:57:57.717Z,22.90
2019-03-24T05:00:37.132Z,18.90
2019-03-24T05:03:09.182Z,23.47
2019-03-24T05:05:42.220Z,28.07
2019-03-24T05:08:15.961Z,26.80
2019-03-24T05:10:47.717Z,28.77
2019-03-24T05:13:19.518Z,23.40
2019-03-24T05:15:51.459Z,22.80
2019-03-24T05:18:23.380Z,24.93
2019-03-24T05:20:55.344Z,23.50
2019-03-24T05:23:27.264Z,19.73
2019-03-24T05:25:59.266Z,26.00
2019-03-24T05:28:32.850Z,22.93
2019-03-24T05:31:04.825Z,22.10
2019-03-24T05:33:36.630Z,27.33
2019-03-24T05:36:08.456Z,21.13
2019-03-24T05:38:40.533Z,31.20
2019-03-24T05:41:12.400Z,25.87
2019-03-24T05:43:46.025Z,18.23
2019-03-24T05:46:17.832Z,21.00
2019-03-24T05:48:49.753Z,25.07
2019-03-24T05:51:21.631Z,22.50
2019-03-24T05:53:53.625Z,20.80
2019-03-24T05:56:25.555Z,26.27
2019-03-24T05:58:58.327Z,26.40
2019-03-24T06:01:30.598Z,25.10
2019-03-24T06:04:02.499Z,20.87
2019-03-24T06:06:36.009Z,20.40
2019-03-24T06:09:10.658Z,22.77
2019-03-24T06:11:42.600Z,23.13
2019-03-24T06:14:14.595Z,22.70
2019-03-24T06:16:46.757Z,31.03
2019-03-24T06:19:18.724Z,24.10
2019-03-24T06:21:50.656Z,27.50
2019-03-24T06:24:23.578Z,26.43
2019-03-24T06:26:55.767Z,23.60
2019-03-24T06:29:27.581Z,29.67
2019-03-24T06:31:59.427Z,25.27
2019-03-24T06:34:31.469Z,26.90
2019-03-24T06:37:04.390Z,23.67
2019-03-24T06:39:36.457Z,18.53
2019-03-24T06:42:08.317Z,26.13
2019-03-24T06:44:40.401Z,20.70
2019-03-24T06:47:12.338Z,25.37
2019-03-24T06:49:44.254Z,17.47
2019-03-24T06:52:16.549Z,20.03
2019-03-24T06:54:48.397Z,23.80
2019-03-24T06:57:20.501Z,19.00
2019-03-24T06:59:52.505Z,28.60
2019-03-24T07:02:24.467Z,21.73
2019-03-24T07:04:56.283Z,23.23
2019-03-24T07:07:28.365Z,22.57
2019-03-24T07:10:00.515Z,23.83
2019-03-24T07:12:33.518Z,28.80
2019-03-24T07:15:05.631Z,26.43
2019-03-24T07:17:38.242Z,31.40
2019-03-24T07:20:11.311Z,19.73
2019-03-24T07:22:43.848Z,25.57
2019-03-24T07:25:16.818Z,20.07
2019-03-24T07:27:49.099Z,17.27
2019-03-24T07:30:22.286Z,23.03
2019-03-24T07:32:54.178Z,18.20
2019-03-24T07:35:26.093Z,21.70
2019-03-24T07:37:57.882Z,21.00
2019-03-24T07:40:29.806Z,18.40
2019-03-24T07:43:01.707Z,18.73
2019-03-24T07:45:33.731Z,14.53
2019-03-24T07:48:05.644Z,21.13
2019-03-24T07:50:37.823Z,13.30
2019-03-24T07:53:11.108Z,17.27
2019-03-24T07:55:44.317Z,19.27
2019-03-24T07:58:16.344Z,15.83
2019-03-24T08:00:48.161Z,15.07
2019-03-24T08:03:19.977Z,19.93
2019-03-24T08:05:51.913Z,19.73
2019-03-24T08:08:23.770Z,18.67
2019-03-24T08:10:55.683Z,15.33
2019-03-24T08:13:27.562Z,17.93
2019-03-24T08:15:59.625Z,15.37
2019-03-24T08:18:31.698Z,19.87
2019-03-24T08:21:03.820Z,17.57
2019-03-24T08:23:35.695Z,17.30
2019-03-24T08:26:11.770Z,18.73
2019-03-24T08:28:44.390Z,14.57
2019-03-24T08:31:16.197Z,14.70
2019-03-24T08:33:48.443Z,19.80
2019-03-24T08:36:20.352Z,14.87
2019-03-24T08:38:52.778Z,18.32
2019-03-24T08:41:24.664Z,18.33
2019-03-24T08:43:56.754Z,15.40
2019-03-24T08:49:48.807Z,14.58
2019-03-24T09:19:30.975Z,15.75
2019-03-24T09:22:02.862Z,11.33
2019-03-24T09:24:40.001Z,10.25
2019-03-24T09:27:16.425Z,13.13
2019-03-24T09:29:51.680Z,16.95
2019-03-24T09:32:23.712Z,14.53
2019-03-24T09:34:56.683Z,11.75
2019-03-24T09:37:28.836Z,13.55
2019-03-24T09:40:00.861Z,15.70
2019-03-24T09:42:34.901Z,13.80
2019-03-24T09:45:07.437Z,15.32
2019-03-24T09:47:39.386Z,19.13
2019-03-24T09:50:13.544Z,14.43
2019-03-24T09:52:45.464Z,13.83
2019-03-24T09:55:17.190Z,11.35
2019-03-24T09:57:48.972Z,17.85
2019-03-24T10:00:20.985Z,14.28
2019-03-24T10:02:52.937Z,14.35
2019-03-24T10:05:26.489Z,12.47
2019-03-24T10:07:58.389Z,15.30
2019-03-24T10:10:30.803Z,10.18
2019-03-24T10:13:02.826Z,14.98
2019-03-24T10:15:34.929Z,14.63
2019-03-24T10:18:07.049Z,13.72
2019-03-24T10:20:39.567Z,14.38
2019-03-24T10:39:25.663Z,15.28
2019-03-24T10:41:57.549Z,14.85
2019-03-24T10:44:30.390Z,10.70
2019-03-24T10:47:02.270Z,10.45
2019-03-24T10:49:34.096Z,14.50
2019-03-24T10:52:08.068Z,12.23
2019-03-24T10:54:41.190Z,17.45
2019-03-24T10:57:13.226Z,17.32
2019-03-24T10:59:45.589Z,9.68
2019-03-24T11:02:18.296Z,12.00
2019-03-24T11:04:52.770Z,13.78
2019-03-24T11:07:24.691Z,13.10
2019-03-24T11:09:57.598Z,14.45
2019-03-24T11:12:29.772Z,13.83
2019-03-24T11:18:04.509Z,14.95
2019-03-24T11:20:36.566Z,14.15
2019-03-24T11:23:08.980Z,13.25
2019-03-24T11:25:41.181Z,13.03
2019-03-24T11:28:14.177Z,15.10
2019-03-24T11:30:46.942Z,11.53
2019-03-24T11:33:18.879Z,9.85
2019-03-24T11:35:51.681Z,9.85
2019-03-24T11:38:23.524Z,11.33
2019-03-24T11:40:55.937Z,17.05
2019-03-24T11:43:27.697Z,14.15
2019-03-24T11:45:59.607Z,21.17
2019-03-24T11:48:31.597Z,16.55
2019-03-24T11:51:05.127Z,12.50
2019-03-24T11:53:37.126Z,13.70
2019-03-24T11:56:16.556Z,12.93
2019-03-24T11:58:48.477Z,14.28
2019-03-24T12:01:20.622Z,14.98
2019-03-24T12:03:52.433Z,14.18
2019-03-24T12:06:25.503Z,13.13
2019-03-24T12:08:57.238Z,14.50
2019-03-24T12:11:29.233Z,15.13
2019-03-24T12:14:01.269Z,17.90
2019-03-24T12:16:33.359Z,15.20
2019-03-24T12:19:05.374Z,14.55
2019-03-24T12:21:37.338Z,10.25
2019-03-24T12:24:09.126Z,10.32
2019-03-24T12:33:03.325Z,12.68
2019-03-24T12:35:35.642Z,13.43
2019-03-24T12:38:07.876Z,15.78
2019-03-24T12:40:39.772Z,13.87
2019-03-24T12:49:26.110Z,13.40
2019-03-24T12:52:02.284Z,18.48
2019-03-24T12:54:34.298Z,20.30
2019-03-24T12:57:07.370Z,13.00
2019-03-24T12:59:43.698Z,13.10
2019-03-24T13:02:15.721Z,19.23
2019-03-24T13:04:47.536Z,13.38
2019-03-24T13:07:20.543Z,16.23
2019-03-24T13:09:52.437Z,9.97
2019-03-24T13:12:24.695Z,11.67
2019-03-24T13:14:56.568Z,18.30
2019-03-24T13:17:28.373Z,13.93
2019-03-24T13:20:00.452Z,18.13
2019-03-24T13:22:33.119Z,18.85
2019-03-24T13:25:05.435Z,12.53
2019-03-24T13:27:37.396Z,14.40
2019-03-24T13:30:09.922Z,11.17
2019-03-24T13:32:42.073Z,15.90
2019-03-24T13:35:14.048Z,12.63
2019-03-24T13:37:46.222Z,9.20
2019-03-24T13:40:19.926Z,14.13
2019-03-24T13:42:52.203Z,11.90
2019-03-24T13:45:25.135Z,12.37
2019-03-24T13:47:56.946Z,8.33
2019-03-24T13:50:31.752Z,15.90
2019-03-24T13:53:03.074Z,9.33
2019-03-24T13:55:35.297Z,7.97
2019-03-24T13:58:07.603Z,9.23
2019-03-24T14:00:41.002Z,6.87
2019-03-24T14:03:12.895Z,7.40
2019-03-24T14:05:44.780Z,10.45
2019-03-24T14:08:16.600Z,10.20
2019-03-24T14:10:48.639Z,10.07
2019-03-24T14:13:22.287Z,8.53
2019-03-24T14:15:54.205Z,13.97
2019-03-24T14:18:26.223Z,8.80
2019-03-24T14:20:58.482Z,9.33
2019-03-24T14:23:45.943Z,17.40
2019-03-24T14:26:26.275Z,16.40
2019-03-24T14:28:58.130Z,10.13
2019-03-24T14:31:30.028Z,8.83
2019-03-24T14:34:02.209Z,9.50
2019-03-24T14:36:34.363Z,9.73
2019-03-24T14:39:07.486Z,11.83
2019-03-24T14:41:39.773Z,10.53
2019-03-24T14:44:11.793Z,10.00
2019-03-24T14:46:43.626Z,12.57
2019-03-24T14:49:15.662Z,10.15
2019-03-24T14:51:50.484Z,13.43
2019-03-24T14:54:23.972Z,7.60
2019-03-24T14:56:56.097Z,9.10
2019-03-24T14:59:30.768Z,13.07
2019-03-24T15:02:02.732Z,9.03
2019-03-24T15:04:34.658Z,12.15
2019-03-24T15:07:06.570Z,8.40
2019-03-24T15:09:39.791Z,11.00
2019-03-24T15:12:12.492Z,13.80
2019-03-24T15:14:44.411Z,8.18
2019-03-24T15:17:16.357Z,9.85
2019-03-24T15:19:50.228Z,11.37
2019-03-24T15:22:22.259Z,8.97
2019-03-24T15:24:57.413Z,8.50
2019-03-24T15:27:29.229Z,13.63
2019-03-24T15:30:01.265Z,9.60
2019-03-24T15:32:34.616Z,9.07
2019-03-24T15:35:07.083Z,10.37
2019-03-24T15:37:39.091Z,14.80
2019-03-24T15:40:11.256Z,8.40
2019-03-24T15:42:43.826Z,7.77
2019-03-24T15:45:16.438Z,7.95
2019-03-24T15:47:49.599Z,8.77
2019-03-24T17:38:39.435Z,17.20
2019-03-24T17:41:11.304Z,20.60
2019-03-24T17:43:43.474Z,21.20
2019-03-24T17:46:16.151Z,28.70
2019-03-24T17:48:48.148Z,26.57
2019-03-24T17:51:20.098Z,61.40
2019-03-24T17:53:52.016Z,38.07
2019-03-24T17:56:24.796Z,43.43
2019-03-24T17:58:58.909Z,43.43
2019-03-24T18:01:32.286Z,45.23
2019-03-24T18:04:06.295Z,46.23
2019-03-24T18:06:41.767Z,43.87
2019-03-24T18:09:13.628Z,48.80
2019-03-24T18:11:45.672Z,45.20
2019-03-24T18:14:17.695Z,58.20
2019-03-24T18:16:50.233Z,55.07
2019-03-24T18:19:22.179Z,58.53
2019-03-24T18:21:54.624Z,70.70
2019-03-24T18:24:26.548Z,99.97
2019-03-24T18:26:58.602Z,78.23
2019-03-24T18:29:32.429Z,83.13
2019-03-24T18:32:04.431Z,85.80
2019-03-24T18:34:36.692Z,84.40
2019-03-24T18:37:08.577Z,78.67
2019-03-24T18:39:40.838Z,88.23
2019-03-24T18:42:12.788Z,88.10
2019-03-24T18:44:44.722Z,73.17
2019-03-24T18:47:16.582Z,81.07
2019-03-24T18:49:48.602Z,68.93
2019-03-24T18:52:22.906Z,64.43
2019-03-24T18:54:56.954Z,68.30
2019-03-24T18:57:34.483Z,66.77
2019-03-24T19:00:07.380Z,65.40
2019-03-24T19:02:39.614Z,66.13
2019-03-24T19:05:12.177Z,66.03
2019-03-24T19:07:44.940Z,65.87
2019-03-24T19:10:16.995Z,54.77
2019-03-24T19:12:52.796Z,49.90
2019-03-24T19:15:26.295Z,47.70
2019-03-24T19:17:58.901Z,49.30
2019-03-24T19:20:30.889Z,51.43
2019-03-24T19:23:02.881Z,54.63
2019-03-24T19:25:34.969Z,53.73
2019-03-24T19:28:06.902Z,60.13
2019-03-24T19:30:40.411Z,59.60
2019-03-24T19:33:15.563Z,61.30
2019-03-24T19:35:49.415Z,53.20
2019-03-24T19:38:22.737Z,54.57
2019-03-24T19:40:57.976Z,43.57
2019-03-24T19:43:30.805Z,52.63
2019-03-24T19:46:05.930Z,45.73
2019-03-24T19:48:39.870Z,43.53
2019-03-24T19:51:13.086Z,42.50
2019-03-24T19:53:49.350Z,47.73
2019-03-24T19:56:22.130Z,44.43
2019-03-24T19:59:03.972Z,38.40
2019-03-24T20:02:49.080Z,35.53
2019-03-24T20:04:58.049Z,39.60
2019-03-24T20:07:31.993Z,32.50
2019-03-24T20:10:11.945Z,33.07
2019-03-24T20:12:51.212Z,32.03
2019-03-24T20:15:24.890Z,33.57
2019-03-24T20:18:02.645Z,38.43
2019-03-24T20:20:40.170Z,35.10
2019-03-24T20:23:14.179Z,34.57
2019-03-24T20:25:46.193Z,33.30
2019-03-24T20:28:21.716Z,32.00
2019-03-24T20:30:54.264Z,31.67
2019-03-24T20:33:27.183Z,32.13
2019-03-24T20:36:00.006Z,36.50
2019-03-24T20:38:33.670Z,34.07
2019-03-24T20:41:06.312Z,32.00
2019-03-24T20:43:39.168Z,34.17
2019-03-24T20:46:11.461Z,32.90
2019-03-24T20:48:43.490Z,34.13
2019-03-24T20:51:15.395Z,36.47
2019-03-24T20:53:53.414Z,40.03
2019-03-24T20:56:28.315Z,47.20
2019-03-24T20:59:01.544Z,48.77
